Orangeville, Ohio
Current Conditions -  °F | °C
As of 1:51 AM on Tuesday 21 Oct 2014 (Local Time) from KYNG Reporting Station
Light Rain Light Rain  
Wind Chill: 50°   Ceiling: 500
Heat Index: 50°   Visibility: 2mi
Dew Point: 49°   Wind: 8mph
Humidity: 96%   Direction: 230°SW
Pressure: 29.83"   Gusts: NA
Location:  41.34°N, 80.52°W
Report Text: KYNG 210551Z 23007KT 2SM -RA BR OVC005 10/09 A2983 RMK AO2 RAE06B23 SLP102 P0000 60026 T01000094 10106 20100 57008
Loading
Personal Weather Stations






























Interactive Weather Map
Tropical Storm Tracking
New forecast layout! Learn more

10-Day Weather Forecast

Advertisements
Track Severe Weather on mobile